sensor_id;sensor_type;location;lat;lon;timestamp;pressure;altitude;pressure_sealevel;temperature;humidity
65546;BME280;52177;55.968;37.498;2022-07-29T00:00:07;99734.75;;;16.73;72.72
65546;BME280;52177;55.968;37.498;2022-07-29T00:00:38;99727.13;;;16.70;72.78
65546;BME280;52177;55.968;37.498;2022-07-29T00:01:08;99733.53;;;16.69;72.83
65546;BME280;52177;55.968;37.498;2022-07-29T00:01:39;99731.28;;;16.66;73.00
65546;BME280;52177;55.968;37.498;2022-07-29T00:02:10;99729.84;;;16.63;72.83
65546;BME280;52177;55.968;37.498;2022-07-29T00:02:40;99731.94;;;16.61;73.28
65546;BME280;52177;55.968;37.498;2022-07-29T00:03:12;99732.13;;;16.60;73.18
65546;BME280;52177;55.968;37.498;2022-07-29T00:03:42;99731.31;;;16.59;73.28
65546;BME280;52177;55.968;37.498;2022-07-29T00:04:13;99727.59;;;16.60;73.49
65546;BME280;52177;55.968;37.498;2022-07-29T00:04:43;99726.75;;;16.60;73.51
65546;BME280;52177;55.968;37.498;2022-07-29T00:05:13;99742.50;;;16.63;73.53
65546;BME280;52177;55.968;37.498;2022-07-29T00:05:44;99731.94;;;16.61;73.46
65546;BME280;52177;55.968;37.498;2022-07-29T00:06:15;99734.63;;;16.61;73.33
65546;BME280;52177;55.968;37.498;2022-07-29T00:06:45;99731.94;;;16.61;73.29
65546;BME280;52177;55.968;37.498;2022-07-29T00:07:16;99735.44;;;16.62;73.28
65546;BME280;52177;55.968;37.498;2022-07-29T00:07:46;99735.66;;;16.60;73.19
65546;BME280;52177;55.968;37.498;2022-07-29T00:08:16;99735.06;;;16.58;73.29
65546;BME280;52177;55.968;37.498;2022-07-29T00:08:47;99729.88;;;16.57;73.32
65546;BME280;52177;55.968;37.498;2022-07-29T00:09:17;99735.06;;;16.58;73.33
65546;BME280;52177;55.968;37.498;2022-07-29T00:09:48;99733.19;;;16.59;73.39
65546;BME280;52177;55.968;37.498;2022-07-29T00:10:18;99728.84;;;16.58;73.24
65546;BME280;52177;55.968;37.498;2022-07-29T00:10:49;99736.69;;;16.59;73.06
65546;BME280;52177;55.968;37.498;2022-07-29T00:11:19;99735.06;;;16.58;73.03
65546;BME280;52177;55.968;37.498;2022-07-29T00:11:50;99730.69;;;16.57;72.96
65546;BME280;52177;55.968;37.498;2022-07-29T00:12:22;99730.13;;;16.55;72.81
65546;BME280;52177;55.968;37.498;2022-07-29T00:12:53;99737.56;;;16.53;73.03
65546;BME280;52177;55.968;37.498;2022-07-29T00:13:23;99733.22;;;16.52;73.08
65546;BME280;52177;55.968;37.498;2022-07-29T00:13:54;99737.16;;;16.50;72.94
65546;BME280;52177;55.968;37.498;2022-07-29T00:14:25;99736.53;;;16.48;73.02
65546;BME280;52177;55.968;37.498;2022-07-29T00:14:56;99734.28;;;16.44;73.15
65546;BME280;52177;55.968;37.498;2022-07-29T00:15:26;99738.00;;;16.43;73.32
65546;BME280;52177;55.968;37.498;2022-07-29T00:15:57;99741.31;;;16.45;73.28
65546;BME280;52177;55.968;37.498;2022-07-29T00:16:27;99741.31;;;16.45;73.50
65546;BME280;52177;55.968;37.498;2022-07-29T00:16:58;99737.59;;;16.46;73.37
65546;BME280;52177;55.968;37.498;2022-07-29T00:17:28;99739.47;;;16.46;73.30
65546;BME280;52177;55.968;37.498;2022-07-29T00:17:59;99736.97;;;16.44;73.25
65546;BME280;52177;55.968;37.498;2022-07-29T00:18:29;99734.28;;;16.44;73.19
65546;BME280;52177;55.968;37.498;2022-07-29T00:18:59;99732.63;;;16.43;72.88
65546;BME280;52177;55.968;37.498;2022-07-29T00:19:30;99738.25;;;16.42;72.83
65546;BME280;52177;55.968;37.498;2022-07-29T00:20:00;99740.31;;;16.40;72.72
65546;BME280;52177;55.968;37.498;2022-07-29T00:20:31;99744.25;;;16.37;73.01
65546;BME280;52177;55.968;37.498;2022-07-29T00:21:01;99739.09;;;16.36;73.13
65546;BME280;52177;55.968;37.498;2022-07-29T00:21:32;99737.44;;;16.35;73.09
65546;BME280;52177;55.968;37.498;2022-07-29T00:22:02;99737.44;;;16.35;73.03
65546;BME280;52177;55.968;37.498;2022-07-29T00:22:33;99739.31;;;16.34;73.26
65546;BME280;52177;55.968;37.498;2022-07-29T00:23:06;99740.13;;;16.35;73.00
65546;BME280;52177;55.968;37.498;2022-07-29T00:23:37;99740.34;;;16.33;73.01
65546;BME280;52177;55.968;37.498;2022-07-29T00:24:08;99744.06;;;16.32;73.24
65546;BME280;52177;55.968;37.498;2022-07-29T00:24:38;99745.09;;;16.31;73.04
65546;BME280;52177;55.968;37.498;2022-07-29T00:25:09;99742.63;;;16.30;73.27
65546;BME280;52177;55.968;37.498;2022-07-29T00:25:40;99733.94;;;16.28;73.48
65546;BME280;52177;55.968;37.498;2022-07-29T00:26:10;99751.72;;;16.29;73.32
65546;BME280;52177;55.968;37.498;2022-07-29T00:26:40;99741.78;;;16.29;73.29
65546;BME280;52177;55.968;37.498;2022-07-29T00:27:11;99742.22;;;16.26;73.48
65546;BME280;52177;55.968;37.498;2022-07-29T00:27:41;99743.47;;;16.23;73.24
65546;BME280;52177;55.968;37.498;2022-07-29T00:28:12;99745.97;;;16.25;73.30
65546;BME280;52177;55.968;37.498;2022-07-29T00:28:42;99747.59;;;16.26;73.28
65546;BME280;52177;55.968;37.498;2022-07-29T00:29:12;99744.91;;;16.26;73.28
65546;BME280;52177;55.968;37.498;2022-07-29T00:29:43;99741.41;;;16.25;73.27
65546;BME280;52177;55.968;37.498;2022-07-29T00:30:13;99735.22;;;16.25;73.17
65546;BME280;52177;55.968;37.498;2022-07-29T00:30:44;99744.91;;;16.26;73.19
65546;BME280;52177;55.968;37.498;2022-07-29T00:31:14;99753.81;;;16.27;73.10
65546;BME280;52177;55.968;37.498;2022-07-29T00:31:45;99749.47;;;16.25;73.00
65546;BME280;52177;55.968;37.498;2022-07-29T00:32:15;99748.84;;;16.23;73.17
65546;BME280;52177;55.968;37.498;2022-07-29T00:32:46;99754.44;;;16.22;73.21
65546;BME280;52177;55.968;37.498;2022-07-29T00:33:16;99750.94;;;16.21;73.25
65546;BME280;52177;55.968;37.498;2022-07-29T00:33:47;99745.16;;;16.18;73.27
65546;BME280;52177;55.968;37.498;2022-07-29T00:34:17;99746.81;;;16.19;73.24
65546;BME280;52177;55.968;37.498;2022-07-29T00:35:07;99738.31;;;16.15;73.15
65546;BME280;52177;55.968;37.498;2022-07-29T00:35:56;99745.81;;;16.13;73.47
65546;BME280;52177;55.968;37.498;2022-07-29T00:36:26;99737.94;;;16.12;73.48
65546;BME280;52177;55.968;37.498;2022-07-29T00:36:57;99741.63;;;16.11;73.51
65546;BME280;52177;55.968;37.498;2022-07-29T00:37:27;99739.81;;;16.11;73.49
65546;BME280;52177;55.968;37.498;2022-07-29T00:37:58;99743.31;;;16.12;73.43
65546;BME280;52177;55.968;37.498;2022-07-29T00:38:28;99751.38;;;16.12;73.58
65546;BME280;52177;55.968;37.498;2022-07-29T00:38:59;99745.38;;;16.10;73.62
65546;BME280;52177;55.968;37.498;2022-07-29T00:39:29;99746.00;;;16.12;73.56
65546;BME280;52177;55.968;37.498;2022-07-29T00:40:00;99742.50;;;16.11;73.64
65546;BME280;52177;55.968;37.498;2022-07-29T00:40:30;99744.13;;;16.12;73.64
65546;BME280;52177;55.968;37.498;2022-07-29T00:41:00;99740.63;;;16.12;73.60
65546;BME280;52177;55.968;37.498;2022-07-29T00:41:31;99745.81;;;16.13;73.41
65546;BME280;52177;55.968;37.498;2022-07-29T00:42:03;99743.13;;;16.13;73.41
65546;BME280;52177;55.968;37.498;2022-07-29T00:42:45;99743.94;;;16.14;73.44
65546;BME280;52177;55.968;37.498;2022-07-29T00:43:16;99745.81;;;16.13;73.31
65546;BME280;52177;55.968;37.498;2022-07-29T00:43:48;99742.25;;;16.13;73.47
65546;BME280;52177;55.968;37.498;2022-07-29T00:44:19;99748.25;;;16.15;73.33
65546;BME280;52177;55.968;37.498;2022-07-29T00:44:49;99746.63;;;16.14;73.35
65546;BME280;52177;55.968;37.498;2022-07-29T00:45:19;99739.56;;;16.13;73.58
65546;BME280;52177;55.968;37.498;2022-07-29T00:45:50;99746.81;;;16.12;73.51
65546;BME280;52177;55.968;37.498;2022-07-29T00:46:20;99754.88;;;16.12;73.37
65546;BME280;52177;55.968;37.498;2022-07-29T00:46:51;99744.34;;;16.11;73.40
65546;BME280;52177;55.968;37.498;2022-07-29T00:47:21;99746.19;;;16.10;73.27
65546;BME280;52177;55.968;37.498;2022-07-29T00:47:51;99752.63;;;16.09;73.34
65546;BME280;52177;55.968;37.498;2022-07-29T00:48:22;99755.53;;;16.08;73.30
65546;BME280;52177;55.968;37.498;2022-07-29T00:48:52;99752.00;;;16.07;73.37
65546;BME280;52177;55.968;37.498;2022-07-29T00:49:23;99757.81;;;16.04;73.41
65546;BME280;52177;55.968;37.498;2022-07-29T00:49:53;99746.44;;;16.02;73.57
65546;BME280;52177;55.968;37.498;2022-07-29T00:50:24;99751.81;;;16.02;73.57
65546;BME280;52177;55.968;37.498;2022-07-29T00:50:56;99746.66;;;16.00;73.69
65546;BME280;52177;55.968;37.498;2022-07-29T00:51:27;99749.34;;;16.00;73.74
65546;BME280;52177;55.968;37.498;2022-07-29T00:52:00;99753.06;;;15.99;73.79
65546;BME280;52177;55.968;37.498;2022-07-29T00:52:33;99744.38;;;15.97;73.68
65546;BME280;52177;55.968;37.498;2022-07-29T00:53:05;99748.72;;;15.98;73.61
65546;BME280;52177;55.968;37.498;2022-07-29T00:53:36;99748.72;;;15.98;73.48
65546;BME280;52177;55.968;37.498;2022-07-29T00:54:08;99745.22;;;15.98;73.46
65546;BME280;52177;55.968;37.498;2022-07-29T00:54:39;99751.63;;;15.97;73.61
65546;BME280;52177;55.968;37.498;2022-07-29T00:55:12;99748.09;;;15.96;73.62
65546;BME280;52177;55.968;37.498;2022-07-29T00:55:43;99755.34;;;15.96;73.66
65546;BME280;52177;55.968;37.498;2022-07-29T00:56:13;99756.16;;;15.96;73.59
65546;BME280;52177;55.968;37.498;2022-07-29T00:56:44;99752.03;;;15.94;73.68
65546;BME280;52177;55.968;37.498;2022-07-29T00:57:14;99753.09;;;15.93;73.67
65546;BME280;52177;55.968;37.498;2022-07-29T00:57:45;99753.28;;;15.91;73.43
65546;BME280;52177;55.968;37.498;2022-07-29T00:58:16;99756.41;;;15.88;73.40
65546;BME280;52177;55.968;37.498;2022-07-29T00:58:46;99763.84;;;15.86;73.63
65546;BME280;52177;55.968;37.498;2022-07-29T00:59:18;99753.09;;;15.86;73.61
65546;BME280;52177;55.968;37.498;2022-07-29T00:59:48;99758.28;;;15.88;73.72
65546;BME280;52177;55.968;37.498;2022-07-29T01:00:21;99761.16;;;15.86;73.67
65546;BME280;52177;55.968;37.498;2022-07-29T01:00:52;99761.34;;;15.85;73.58
65546;BME280;52177;55.968;37.498;2022-07-29T01:01:23;99763.22;;;15.84;73.82
65546;BME280;52177;55.968;37.498;2022-07-29T01:01:54;99761.59;;;15.83;73.90
65546;BME280;52177;55.968;37.498;2022-07-29T01:02:25;99759.72;;;15.83;73.87
65546;BME280;52177;55.968;37.498;2022-07-29T01:02:55;99760.53;;;15.84;73.88
65546;BME280;52177;55.968;37.498;2022-07-29T01:03:26;99763.03;;;15.86;74.13
65546;BME280;52177;55.968;37.498;2022-07-29T01:03:56;99763.03;;;15.86;74.00
65546;BME280;52177;55.968;37.498;2022-07-29T01:04:27;99770.28;;;15.85;73.81
65546;BME280;52177;55.968;37.498;2022-07-29T01:04:57;99758.47;;;15.86;73.83
65546;BME280;52177;55.968;37.498;2022-07-29T01:05:28;99763.66;;;15.88;73.84
65546;BME280;52177;55.968;37.498;2022-07-29T01:06:00;99757.41;;;15.87;74.10
65546;BME280;52177;55.968;37.498;2022-07-29T01:06:30;99759.91;;;15.89;74.04
65546;BME280;52177;55.968;37.498;2022-07-29T01:07:02;99768.78;;;15.89;74.11
65546;BME280;52177;55.968;37.498;2022-07-29T01:07:34;99758.03;;;15.89;74.07
65546;BME280;52177;55.968;37.498;2022-07-29T01:08:06;99760.97;;;15.88;74.04
65546;BME280;52177;55.968;37.498;2022-07-29T01:08:37;99765.47;;;15.87;74.19
65546;BME280;52177;55.968;37.498;2022-07-29T01:09:08;99763.84;;;15.86;73.97
65546;BME280;52177;55.968;37.498;2022-07-29T01:09:40;99759.28;;;15.87;73.98
65546;BME280;52177;55.968;37.498;2022-07-29T01:10:12;99769.22;;;15.86;73.95
65546;BME280;52177;55.968;37.498;2022-07-29T01:10:44;99766.97;;;15.83;74.22
65546;BME280;52177;55.968;37.498;2022-07-29T01:11:16;99760.72;;;15.82;74.17
65546;BME280;52177;55.968;37.498;2022-07-29T01:11:48;99761.78;;;15.81;74.16
65546;BME280;52177;55.968;37.498;2022-07-29T01:12:21;99767.16;;;15.81;74.24
65546;BME280;52177;55.968;37.498;2022-07-29T01:12:55;99759.53;;;15.78;74.23
65546;BME280;52177;55.968;37.498;2022-07-29T01:13:27;99764.03;;;15.78;74.23
65546;BME280;52177;55.968;37.498;2022-07-29T01:14:00;99767.59;;;15.78;74.43
65546;BME280;52177;55.968;37.498;2022-07-29T01:14:31;99765.72;;;15.79;74.37
65546;BME280;52177;55.968;37.498;2022-07-29T01:15:03;99767.34;;;15.80;74.29
65546;BME280;52177;55.968;37.498;2022-07-29T01:15:43;99762.41;;;15.77;74.38
65546;BME280;52177;55.968;37.498;2022-07-29T01:16:25;99761.78;;;15.75;74.59
65546;BME280;52177;55.968;37.498;2022-07-29T01:17:22;99763.84;;;15.73;74.48
65546;BME280;52177;55.968;37.498;2022-07-29T01:21:44;99768.81;;;15.62;74.76
65546;BME280;52177;55.968;37.498;2022-07-29T01:22:31;99767.97;;;15.62;74.85
65546;BME280;52177;55.968;37.498;2022-07-29T01:23:58;99766.31;;;15.61;74.62
65546;BME280;52177;55.968;37.498;2022-07-29T01:25:12;99764.88;;;15.58;74.81
65546;BME280;52177;55.968;37.498;2022-07-29T01:28:49;99767.16;;;15.55;74.86
65546;BME280;52177;55.968;37.498;2022-07-29T01:29:58;99760.94;;;15.54;75.07
65546;BME280;52177;55.968;37.498;2022-07-29T01:30:30;99759.94;;;15.55;74.77
65546;BME280;52177;55.968;37.498;2022-07-29T01:31:04;99769.63;;;15.56;74.73
65546;BME280;52177;55.968;37.498;2022-07-29T01:31:43;99763.63;;;15.54;74.62
65546;BME280;52177;55.968;37.498;2022-07-29T01:32:18;99761.16;;;15.53;74.42
65546;BME280;52177;55.968;37.498;2022-07-29T01:32:55;99765.09;;;15.50;74.69
65546;BME280;52177;55.968;37.498;2022-07-29T01:33:26;99764.47;;;15.48;74.76
65546;BME280;52177;55.968;37.498;2022-07-29T01:34:50;99769.84;;;15.48;74.96
65546;BME280;52177;55.968;37.498;2022-07-29T01:35:26;99754.75;;;15.47;74.81
65546;BME280;52177;55.968;37.498;2022-07-29T01:36:01;99760.97;;;15.48;74.85
65546;BME280;52177;55.968;37.498;2022-07-29T01:36:43;99765.50;;;15.47;74.98
65546;BME280;52177;55.968;37.498;2022-07-29T01:38:39;99762.81;;;15.47;74.75
65546;BME280;52177;55.968;37.498;2022-07-29T01:39:19;99766.34;;;15.48;74.94
65546;BME280;52177;55.968;37.498;2022-07-29T01:39:55;99766.53;;;15.46;75.10
65546;BME280;52177;55.968;37.498;2022-07-29T01:40:36;99769.03;;;15.48;74.89
65546;BME280;52177;55.968;37.498;2022-07-29T01:41:12;99765.72;;;15.46;74.89
65546;BME280;52177;55.968;37.498;2022-07-29T01:41:54;99774.59;;;15.46;74.91
65546;BME280;52177;55.968;37.498;2022-07-29T01:42:39;99763.03;;;15.46;74.94
65546;BME280;52177;55.968;37.498;2022-07-29T01:43:16;99767.78;;;15.44;74.91
65546;BME280;52177;55.968;37.498;2022-07-29T01:43:54;99766.97;;;15.43;75.07
65546;BME280;52177;55.968;37.498;2022-07-29T01:44:33;99765.28;;;15.42;75.09
65546;BME280;52177;55.968;37.498;2022-07-29T01:45:24;99761.16;;;15.39;75.41
65546;BME280;52177;55.968;37.498;2022-07-29T01:46:00;99769.41;;;15.38;75.35
65546;BME280;52177;55.968;37.498;2022-07-29T01:46:34;99770.47;;;15.37;75.23
65546;BME280;52177;55.968;37.498;2022-07-29T01:47:12;99765.91;;;15.37;75.24
65546;BME280;52177;55.968;37.498;2022-07-29T01:48:16;99772.53;;;15.35;75.18
65546;BME280;52177;55.968;37.498;2022-07-29T01:48:53;99765.28;;;15.35;75.18
65546;BME280;52177;55.968;37.498;2022-07-29T01:49:34;99763.84;;;15.33;75.52
65546;BME280;52177;55.968;37.498;2022-07-29T01:50:07;99769.22;;;15.33;75.43
65546;BME280;52177;55.968;37.498;2022-07-29T01:51:05;99766.53;;;15.33;75.74
65546;BME280;52177;55.968;37.498;2022-07-29T01:51:49;99769.00;;;15.34;75.61
65546;BME280;52177;55.968;37.498;2022-07-29T01:52:31;99769.00;;;15.34;75.32
65546;BME280;52177;55.968;37.498;2022-07-29T01:53:06;99768.19;;;15.34;75.56
65546;BME280;52177;55.968;37.498;2022-07-29T01:53:43;99766.31;;;15.34;75.59
65546;BME280;52177;55.968;37.498;2022-07-29T01:55:04;99765.50;;;15.34;75.46
65546;BME280;52177;55.968;37.498;2022-07-29T01:55:39;99767.16;;;15.35;75.42
65546;BME280;52177;55.968;37.498;2022-07-29T01:56:11;99765.28;;;15.35;75.49
65546;BME280;52177;55.968;37.498;2022-07-29T01:56:43;99765.28;;;15.35;75.53
65546;BME280;52177;55.968;37.498;2022-07-29T01:57:16;99759.72;;;15.37;75.30
65546;BME280;52177;55.968;37.498;2022-07-29T01:57:49;99772.09;;;15.38;75.42
65546;BME280;52177;55.968;37.498;2022-07-29T01:58:20;99768.59;;;15.37;75.20
65546;BME280;52177;55.968;37.498;2022-07-29T01:58:52;99763.03;;;15.39;75.28
65546;BME280;52177;55.968;37.498;2022-07-29T01:59:23;99760.97;;;15.41;75.19
65546;BME280;52177;55.968;37.498;2022-07-29T01:59:57;99769.22;;;15.39;75.10
65546;BME280;52177;55.968;37.498;2022-07-29T02:00:30;99765.72;;;15.39;75.18
65546;BME280;52177;55.968;37.498;2022-07-29T02:01:02;99766.53;;;15.39;75.21
65546;BME280;52177;55.968;37.498;2022-07-29T02:01:34;99762.81;;;15.40;75.11
65546;BME280;52177;55.968;37.498;2022-07-29T02:02:08;99770.88;;;15.40;75.13
65546;BME280;52177;55.968;37.498;2022-07-29T02:02:43;99765.72;;;15.39;75.24
65546;BME280;52177;55.968;37.498;2022-07-29T02:03:15;99765.50;;;15.40;75.16
65546;BME280;52177;55.968;37.498;2022-07-29T02:03:47;99765.09;;;15.37;75.04
65546;BME280;52177;55.968;37.498;2022-07-29T02:04:19;99768.59;;;15.37;75.29
65546;BME280;52177;55.968;37.498;2022-07-29T02:04:51;99765.72;;;15.39;75.16
65546;BME280;52177;55.968;37.498;2022-07-29T02:05:23;99769.03;;;15.41;75.28
65546;BME280;52177;55.968;37.498;2022-07-29T02:05:56;99773.34;;;15.42;75.33
65546;BME280;52177;55.968;37.498;2022-07-29T02:06:28;99771.47;;;15.43;75.49
65546;BME280;52177;55.968;37.498;2022-07-29T02:07:04;99771.72;;;15.41;75.42
65546;BME280;52177;55.968;37.498;2022-07-29T02:07:36;99772.09;;;15.38;75.71
65546;BME280;52177;55.968;37.498;2022-07-29T02:08:08;99764.88;;;15.38;75.81
65546;BME280;52177;55.968;37.498;2022-07-29T02:08:40;99766.72;;;15.38;75.41
65546;BME280;52177;55.968;37.498;2022-07-29T02:09:13;99770.47;;;15.37;75.43
65546;BME280;52177;55.968;37.498;2022-07-29T02:09:47;99769.41;;;15.38;75.55
65546;BME280;52177;55.968;37.498;2022-07-29T02:10:22;99766.72;;;15.38;75.35
65546;BME280;52177;55.968;37.498;2022-07-29T02:10:54;99769.41;;;15.38;75.42
65546;BME280;52177;55.968;37.498;2022-07-29T02:11:25;99767.78;;;15.37;75.24
65546;BME280;52177;55.968;37.498;2022-07-29T02:11:56;99770.25;;;15.38;75.24
65546;BME280;52177;55.968;37.498;2022-07-29T02:12:29;99767.78;;;15.37;75.21
65546;BME280;52177;55.968;37.498;2022-07-29T02:13:02;99764.03;;;15.38;75.33
65546;BME280;52177;55.968;37.498;2022-07-29T02:13:35;99764.03;;;15.38;75.50
65546;BME280;52177;55.968;37.498;2022-07-29T02:14:07;99764.88;;;15.38;75.32
65546;BME280;52177;55.968;37.498;2022-07-29T02:14:43;99764.03;;;15.38;75.31
65546;BME280;52177;55.968;37.498;2022-07-29T02:15:16;99776.25;;;15.40;75.21
65546;BME280;52177;55.968;37.498;2022-07-29T02:15:48;99770.88;;;15.40;75.36
65546;BME280;52177;55.968;37.498;2022-07-29T02:16:21;99765.50;;;15.40;75.34
65546;BME280;52177;55.968;37.498;2022-07-29T02:16:54;99769.03;;;15.41;75.45
65546;BME280;52177;55.968;37.498;2022-07-29T02:17:33;99764.47;;;15.41;75.40
65546;BME280;52177;55.968;37.498;2022-07-29T02:18:11;99771.72;;;15.41;75.01
65546;BME280;52177;55.968;37.498;2022-07-29T02:18:44;99768.19;;;15.40;75.09
65546;BME280;52177;55.968;37.498;2022-07-29T02:19:18;99774.41;;;15.41;75.09
65546;BME280;52177;55.968;37.498;2022-07-29T02:19:49;99770.47;;;15.37;75.13
65546;BME280;52177;55.968;37.498;2022-07-29T02:20:24;99774.41;;;15.41;75.07
65546;BME280;52177;55.968;37.498;2022-07-29T02:20:56;99773.97;;;15.44;74.88
65546;BME280;52177;55.968;37.498;2022-07-29T02:21:29;99773.34;;;15.42;74.80
65546;BME280;52177;55.968;37.498;2022-07-29T02:22:02;99769.22;;;15.39;74.70
65546;BME280;52177;55.968;37.498;2022-07-29T02:22:35;99768.41;;;15.39;75.11
65546;BME280;52177;55.968;37.498;2022-07-29T02:23:09;99770.88;;;15.40;75.04
65546;BME280;52177;55.968;37.498;2022-07-29T02:23:40;99762.81;;;15.40;75.07
65546;BME280;52177;55.968;37.498;2022-07-29T02:24:12;99765.28;;;15.42;75.09
65546;BME280;52177;55.968;37.498;2022-07-29T02:24:43;99768.19;;;15.40;75.09
65546;BME280;52177;55.968;37.498;2022-07-29T02:25:15;99768.41;;;15.39;75.06
65546;BME280;52177;55.968;37.498;2022-07-29T02:25:56;99765.72;;;15.39;75.12
65546;BME280;52177;55.968;37.498;2022-07-29T02:26:28;99773.78;;;15.39;75.13
65546;BME280;52177;55.968;37.498;2022-07-29T02:27:00;99777.09;;;15.41;75.10
65546;BME280;52177;55.968;37.498;2022-07-29T02:27:33;99772.53;;;15.41;75.21
65546;BME280;52177;55.968;37.498;2022-07-29T02:28:06;99774.78;;;15.45;75.00
65546;BME280;52177;55.968;37.498;2022-07-29T02:28:38;99775.41;;;15.47;75.06
65546;BME280;52177;55.968;37.498;2022-07-29T02:29:12;99772.09;;;15.45;74.82
65546;BME280;52177;55.968;37.498;2022-07-29T02:29:45;99775.84;;;15.44;74.81
65546;BME280;52177;55.968;37.498;2022-07-29T02:30:18;99767.16;;;15.41;74.84
65546;BME280;52177;55.968;37.498;2022-07-29T02:30:51;99768.78;;;15.43;74.76
65546;BME280;52177;55.968;37.498;2022-07-29T02:31:26;99772.34;;;15.43;74.78
65546;BME280;52177;55.968;37.498;2022-07-29T02:31:58;99781.22;;;15.44;74.86
65546;BME280;52177;55.968;37.498;2022-07-29T02:32:31;99775.03;;;15.43;74.92
65546;BME280;52177;55.968;37.498;2022-07-29T02:33:05;99779.97;;;15.39;74.95
65546;BME280;52177;55.968;37.498;2022-07-29T02:33:37;99776.47;;;15.39;74.94
65546;BME280;52177;55.968;37.498;2022-07-29T02:34:08;99779.78;;;15.41;75.13
65546;BME280;52177;55.968;37.498;2022-07-29T02:34:40;99776.66;;;15.44;75.05
65546;BME280;52177;55.968;37.498;2022-07-29T02:35:13;99773.78;;;15.46;74.75
65546;BME280;52177;55.968;37.498;2022-07-29T02:35:46;99772.53;;;15.48;74.89
65546;BME280;52177;55.968;37.498;2022-07-29T02:36:17;99775.00;;;15.50;74.86
65546;BME280;52177;55.968;37.498;2022-07-29T02:36:49;99772.94;;;15.52;74.91
65546;BME280;52177;55.968;37.498;2022-07-29T02:37:20;99780.78;;;15.53;75.01
65546;BME280;52177;55.968;37.498;2022-07-29T02:37:51;99773.34;;;15.55;75.09
65546;BME280;52177;55.968;37.498;2022-07-29T02:38:42;99775.41;;;15.53;74.67
65546;BME280;52177;55.968;37.498;2022-07-29T02:39:22;99775.22;;;15.55;74.88
65546;BME280;52177;55.968;37.498;2022-07-29T02:39:54;99774.81;;;15.58;74.90
65546;BME280;52177;55.968;37.498;2022-07-29T02:40:25;99781.22;;;15.57;74.67
65546;BME280;52177;55.968;37.498;2022-07-29T02:40:57;99780.19;;;15.58;74.83
65546;BME280;52177;55.968;37.498;2022-07-29T02:41:31;99781.63;;;15.60;74.57
65546;BME280;52177;55.968;37.498;2022-07-29T02:42:06;99772.50;;;15.61;74.71
65546;BME280;52177;55.968;37.498;2022-07-29T02:42:38;99773.13;;;15.63;74.52
65546;BME280;52177;55.968;37.498;2022-07-29T02:43:11;99773.13;;;15.63;74.39
65546;BME280;52177;55.968;37.498;2022-07-29T02:43:43;99782.03;;;15.64;74.34
65546;BME280;52177;55.968;37.498;2022-07-29T02:44:17;99781.81;;;15.66;74.29
65546;BME280;52177;55.968;37.498;2022-07-29T02:44:48;99782.63;;;15.66;74.03
65546;BME280;52177;55.968;37.498;2022-07-29T02:45:19;99776.66;;;15.64;74.16
65546;BME280;52177;55.968;37.498;2022-07-29T02:45:51;99780.19;;;15.65;74.09
65546;BME280;52177;55.968;37.498;2022-07-29T02:46:29;99776.66;;;15.64;74.37
65546;BME280;52177;55.968;37.498;2022-07-29T02:47:41;99787.81;;;15.68;74.32
65546;BME280;52177;55.968;37.498;2022-07-29T02:48:15;99779.75;;;15.68;74.28
65546;BME280;52177;55.968;37.498;2022-07-29T02:49:27;99779.75;;;15.68;73.99
65546;BME280;52177;55.968;37.498;2022-07-29T02:50:15;99779.94;;;15.66;73.88
65546;BME280;52177;55.968;37.498;2022-07-29T02:50:55;99780.81;;;15.67;74.08
65546;BME280;52177;55.968;37.498;2022-07-29T02:51:49;99777.06;;;15.68;74.26
65546;BME280;52177;55.968;37.498;2022-07-29T02:53:08;99780.22;;;15.71;73.94
65546;BME280;52177;55.968;37.498;2022-07-29T02:53:41;99778.97;;;15.74;73.86
65546;BME280;52177;55.968;37.498;2022-07-29T02:54:23;99782.47;;;15.74;73.64
65546;BME280;52177;55.968;37.498;2022-07-29T02:55:13;99783.53;;;15.73;73.66
65546;BME280;52177;55.968;37.498;2022-07-29T02:56:01;99781.66;;;15.74;73.73
65546;BME280;52177;55.968;37.498;2022-07-29T02:56:34;99781.22;;;15.70;73.77
65546;BME280;52177;55.968;37.498;2022-07-29T02:57:11;99780.38;;;15.70;73.79
65546;BME280;52177;55.968;37.498;2022-07-29T02:57:48;99776.66;;;15.71;73.84
65546;BME280;52177;55.968;37.498;2022-07-29T02:58:53;99780.22;;;15.71;74.03
65546;BME280;52177;55.968;37.498;2022-07-29T02:59:26;99781.66;;;15.74;74.30
65546;BME280;52177;55.968;37.498;2022-07-29T02:59:59;99773.97;;;15.77;73.90
65546;BME280;52177;55.968;37.498;2022-07-29T03:00:36;99782.03;;;15.77;73.93
65546;BME280;52177;55.968;37.498;2022-07-29T03:01:13;99780.41;;;15.76;73.51
65546;BME280;52177;55.968;37.498;2022-07-29T03:01:45;99783.28;;;15.75;73.62
65546;BME280;52177;55.968;37.498;2022-07-29T03:02:16;99784.09;;;15.75;73.70
65546;BME280;52177;55.968;37.498;2022-07-29T03:02:52;99785.97;;;15.75;73.75
65546;BME280;52177;55.968;37.498;2022-07-29T03:03:26;99778.72;;;15.75;73.85
65546;BME280;52177;55.968;37.498;2022-07-29T03:04:01;99779.59;;;15.76;73.73
65546;BME280;52177;55.968;37.498;2022-07-29T03:04:34;99777.50;;;15.78;73.72
65546;BME280;52177;55.968;37.498;2022-07-29T03:05:07;99775.66;;;15.78;74.04
65546;BME280;52177;55.968;37.498;2022-07-29T03:05:40;99779.78;;;15.81;73.66
65546;BME280;52177;55.968;37.498;2022-07-29T03:06:12;99777.47;;;15.85;74.01
65546;BME280;52177;55.968;37.498;2022-07-29T03:06:44;99777.91;;;15.88;73.74
65546;BME280;52177;55.968;37.498;2022-07-29T03:07:18;99779.97;;;15.86;73.38
65546;BME280;52177;55.968;37.498;2022-07-29T03:07:56;99783.47;;;15.87;73.50
65546;BME280;52177;55.968;37.498;2022-07-29T03:08:27;99781.63;;;15.87;73.43
65546;BME280;52177;55.968;37.498;2022-07-29T03:08:59;99778.34;;;15.85;73.28